Estación Meteorológica Peña el Pijo (Robertgarden) [ 11/20/17 01:25:02 CET ]

Fecha Hora Presion(HPa) Temp (°C) Humedad % Rocio (°C) Viento ( m/s) Direccion Lluvia 1Hora(mm) Lluvia 24H(mm) LLuvia Total(mm)
2017-Nov-16 01:01:36 1009.500 -0.1 58 -7.4         1468.01
2017-Nov-16 02:02:17 1009.300 -1.1 60 -7.9         1468.01
2017-Nov-16 03:01:51 1009.200 -1.7 63 -7.8         1468.01
2017-Nov-16 04:01:40 1009.000 -2.1 65 -7.8         1468.01
2017-Nov-16 05:01:43 1008.800 -1.9 65 -7.6         1468.01
2017-Nov-16 06:01:45 1008.900 -2.0 66 -7.5         1468.01
2017-Nov-16 07:01:47 1009.200 -2.1 67 -7.4         1468.01
2017-Nov-16 08:01:44 1009.200 -2.2 68 -7.3         1468.01
2017-Nov-16 09:01:37 1009.700 -0.6 71 -5.2         1468.01
2017-Nov-16 10:01:42 1009.900 8.7 50 -1.2         1468.01
2017-Nov-16 11:01:35 1009.600 16.4 33 -0.0         1468.01
2017-Nov-16 12:01:46 1009.600 17.8 25 -2.7 1.4 SE     1468.01
2017-Nov-16 13:01:43 1008.700 18.5 23 -3.2         1468.01
2017-Nov-16 14:01:10 1008.600 19.9 21 -3.7         1468.01
2017-Nov-16 15:01:35 1008.200 20.1 19 -4.4         1468.01
2017-Nov-16 16:01:42 1008.000 19.8 19 -4.7         1468.01
2017-Nov-16 17:01:54 1008.200 16.9 25 -3.5         1468.01
2017-Nov-16 18:01:41 1008.900 13.2 30 -4.0         1468.01
2017-Nov-16 19:01:50 1009.700 8.9 38 -4.7         1468.01
2017-Nov-16 20:01:42 1010.200 5.0 45 -6.1         1468.01
2017-Nov-16 21:01:46 1010.500 3.8 51 -5.4         1468.01
2017-Nov-16 22:01:48 1010.900 2.4 53 -6.2         1468.01
2017-Nov-16 23:01:57 1011.200 1.3 58 -6.1         1468.01

Temperatura Máxima:20°    Temperatura Mínima:-2°
Presión Máxima:1011.200 Hpa    Presión Mínima:1008.000 Hpa


Volver